sensor_id;sensor_type;location;lat;lon;timestamp;P1;durP1;ratioP1;P2;durP2;ratioP2
19525;SDS011;9907;42.676;26.348;2023-03-14T00:00:07;4.77;;;3.40;;
19525;SDS011;9907;42.676;26.348;2023-03-14T00:02:35;6.30;;;3.70;;
19525;SDS011;9907;42.676;26.348;2023-03-14T00:05:01;4.43;;;3.70;;
19525;SDS011;9907;42.676;26.348;2023-03-14T00:07:31;5.10;;;4.10;;
19525;SDS011;9907;42.676;26.348;2023-03-14T00:10:00;5.90;;;4.47;;
19525;SDS011;9907;42.676;26.348;2023-03-14T00:12:27;5.77;;;3.60;;
19525;SDS011;9907;42.676;26.348;2023-03-14T00:14:52;5.77;;;3.70;;
19525;SDS011;9907;42.676;26.348;2023-03-14T00:17:18;5.83;;;4.27;;
19525;SDS011;9907;42.676;26.348;2023-03-14T00:19:43;5.30;;;3.20;;
19525;SDS011;9907;42.676;26.348;2023-03-14T00:22:08;4.67;;;3.40;;
19525;SDS011;9907;42.676;26.348;2023-03-14T00:24:34;5.97;;;3.40;;
19525;SDS011;9907;42.676;26.348;2023-03-14T00:26:59;6.20;;;4.37;;
19525;SDS011;9907;42.676;26.348;2023-03-14T00:29:25;6.90;;;4.27;;
19525;SDS011;9907;42.676;26.348;2023-03-14T00:31:50;6.10;;;3.90;;
19525;SDS011;9907;42.676;26.348;2023-03-14T00:34:16;5.53;;;4.07;;
19525;SDS011;9907;42.676;26.348;2023-03-14T00:36:41;7.07;;;5.17;;
19525;SDS011;9907;42.676;26.348;2023-03-14T00:39:07;7.20;;;5.07;;
19525;SDS011;9907;42.676;26.348;2023-03-14T00:41:33;5.57;;;4.33;;
19525;SDS011;9907;42.676;26.348;2023-03-14T00:43:59;7.97;;;4.97;;
19525;SDS011;9907;42.676;26.348;2023-03-14T00:46:24;5.87;;;4.20;;
19525;SDS011;9907;42.676;26.348;2023-03-14T00:48:49;5.57;;;4.20;;
19525;SDS011;9907;42.676;26.348;2023-03-14T00:51:15;6.07;;;4.13;;
19525;SDS011;9907;42.676;26.348;2023-03-14T00:53:41;6.63;;;4.30;;
19525;SDS011;9907;42.676;26.348;2023-03-14T00:56:08;6.03;;;4.67;;
19525;SDS011;9907;42.676;26.348;2023-03-14T00:58:35;6.20;;;4.30;;
19525;SDS011;9907;42.676;26.348;2023-03-14T01:01:05;9.13;;;5.27;;
19525;SDS011;9907;42.676;26.348;2023-03-14T01:03:32;7.20;;;5.37;;
19525;SDS011;9907;42.676;26.348;2023-03-14T01:06:17;6.80;;;5.23;;
19525;SDS011;9907;42.676;26.348;2023-03-14T01:08:45;8.73;;;5.60;;
19525;SDS011;9907;42.676;26.348;2023-03-14T01:11:12;7.43;;;5.23;;
19525;SDS011;9907;42.676;26.348;2023-03-14T01:13:43;7.67;;;5.23;;
19525;SDS011;9907;42.676;26.348;2023-03-14T01:16:09;7.67;;;5.93;;
19525;SDS011;9907;42.676;26.348;2023-03-14T01:18:36;8.90;;;6.00;;
19525;SDS011;9907;42.676;26.348;2023-03-14T01:21:24;7.57;;;5.17;;
19525;SDS011;9907;42.676;26.348;2023-03-14T01:23:51;6.83;;;5.30;;
19525;SDS011;9907;42.676;26.348;2023-03-14T01:26:18;6.43;;;5.03;;
19525;SDS011;9907;42.676;26.348;2023-03-14T01:28:46;6.23;;;4.40;;
19525;SDS011;9907;42.676;26.348;2023-03-14T01:31:12;4.30;;;3.67;;
19525;SDS011;9907;42.676;26.348;2023-03-14T01:33:38;4.40;;;3.87;;
19525;SDS011;9907;42.676;26.348;2023-03-14T01:36:04;7.07;;;4.23;;
19525;SDS011;9907;42.676;26.348;2023-03-14T01:38:34;3.73;;;3.30;;
19525;SDS011;9907;42.676;26.348;2023-03-14T01:41:01;4.43;;;3.37;;
19525;SDS011;9907;42.676;26.348;2023-03-14T01:43:28;3.43;;;3.13;;
19525;SDS011;9907;42.676;26.348;2023-03-14T01:48:32;3.43;;;3.13;;
19525;SDS011;9907;42.676;26.348;2023-03-14T01:51:04;3.80;;;3.10;;
19525;SDS011;9907;42.676;26.348;2023-03-14T01:53:33;5.50;;;3.33;;
19525;SDS011;9907;42.676;26.348;2023-03-14T01:56:00;5.73;;;3.37;;
19525;SDS011;9907;42.676;26.348;2023-03-14T01:58:27;5.23;;;3.53;;
19525;SDS011;9907;42.676;26.348;2023-03-14T02:00:56;6.80;;;3.90;;
19525;SDS011;9907;42.676;26.348;2023-03-14T02:03:23;5.33;;;3.87;;
19525;SDS011;9907;42.676;26.348;2023-03-14T02:05:51;4.07;;;3.57;;
19525;SDS011;9907;42.676;26.348;2023-03-14T02:08:21;4.67;;;3.70;;
19525;SDS011;9907;42.676;26.348;2023-03-14T02:10:49;5.90;;;3.90;;
19525;SDS011;9907;42.676;26.348;2023-03-14T02:13:18;4.47;;;3.40;;
19525;SDS011;9907;42.676;26.348;2023-03-14T02:15:46;4.83;;;4.20;;
19525;SDS011;9907;42.676;26.348;2023-03-14T02:18:12;5.47;;;4.10;;
19525;SDS011;9907;42.676;26.348;2023-03-14T02:23:53;5.37;;;4.30;;
19525;SDS011;9907;42.676;26.348;2023-03-14T02:26:20;6.87;;;4.57;;
19525;SDS011;9907;42.676;26.348;2023-03-14T02:28:51;5.53;;;4.20;;
19525;SDS011;9907;42.676;26.348;2023-03-14T02:31:18;6.40;;;4.47;;
19525;SDS011;9907;42.676;26.348;2023-03-14T02:33:46;4.37;;;3.80;;
19525;SDS011;9907;42.676;26.348;2023-03-14T02:36:11;5.50;;;3.87;;
19525;SDS011;9907;42.676;26.348;2023-03-14T02:38:58;5.03;;;3.77;;
19525;SDS011;9907;42.676;26.348;2023-03-14T02:41:36;3.93;;;3.07;;
19525;SDS011;9907;42.676;26.348;2023-03-14T02:44:01;3.70;;;3.20;;
19525;SDS011;9907;42.676;26.348;2023-03-14T02:46:27;4.30;;;3.57;;
19525;SDS011;9907;42.676;26.348;2023-03-14T02:48:54;5.10;;;2.90;;
19525;SDS011;9907;42.676;26.348;2023-03-14T02:51:28;4.00;;;2.90;;
19525;SDS011;9907;42.676;26.348;2023-03-14T02:53:54;2.63;;;2.23;;
19525;SDS011;9907;42.676;26.348;2023-03-14T02:56:20;2.60;;;2.40;;
19525;SDS011;9907;42.676;26.348;2023-03-14T02:58:45;5.20;;;2.50;;
19525;SDS011;9907;42.676;26.348;2023-03-14T03:01:11;2.87;;;2.00;;
19525;SDS011;9907;42.676;26.348;2023-03-14T03:03:36;3.90;;;2.10;;
19525;SDS011;9907;42.676;26.348;2023-03-14T03:06:02;4.33;;;2.20;;
19525;SDS011;9907;42.676;26.348;2023-03-14T03:08:27;2.40;;;2.00;;
19525;SDS011;9907;42.676;26.348;2023-03-14T03:10:54;3.03;;;1.90;;
19525;SDS011;9907;42.676;26.348;2023-03-14T03:13:20;2.40;;;1.93;;
19525;SDS011;9907;42.676;26.348;2023-03-14T03:15:46;2.57;;;2.20;;
19525;SDS011;9907;42.676;26.348;2023-03-14T03:18:12;2.50;;;2.30;;
19525;SDS011;9907;42.676;26.348;2023-03-14T03:20:38;2.90;;;2.40;;
19525;SDS011;9907;42.676;26.348;2023-03-14T03:23:03;2.97;;;2.17;;
19525;SDS011;9907;42.676;26.348;2023-03-14T03:25:29;2.27;;;2.07;;
19525;SDS011;9907;42.676;26.348;2023-03-14T03:27:55;2.73;;;2.43;;
19525;SDS011;9907;42.676;26.348;2023-03-14T03:30:21;2.73;;;2.10;;
19525;SDS011;9907;42.676;26.348;2023-03-14T03:32:46;3.27;;;2.50;;
19525;SDS011;9907;42.676;26.348;2023-03-14T03:35:12;3.63;;;2.70;;
19525;SDS011;9907;42.676;26.348;2023-03-14T03:37:38;3.10;;;2.60;;
19525;SDS011;9907;42.676;26.348;2023-03-14T03:40:07;3.80;;;2.43;;
19525;SDS011;9907;42.676;26.348;2023-03-14T03:42:34;3.27;;;2.53;;
19525;SDS011;9907;42.676;26.348;2023-03-14T03:45:00;3.67;;;2.70;;
19525;SDS011;9907;42.676;26.348;2023-03-14T03:47:26;2.23;;;2.00;;
19525;SDS011;9907;42.676;26.348;2023-03-14T03:49:52;3.10;;;2.77;;
19525;SDS011;9907;42.676;26.348;2023-03-14T03:52:18;3.30;;;2.40;;
19525;SDS011;9907;42.676;26.348;2023-03-14T03:54:45;4.20;;;2.63;;
19525;SDS011;9907;42.676;26.348;2023-03-14T03:57:14;2.40;;;2.20;;
19525;SDS011;9907;42.676;26.348;2023-03-14T03:59:40;2.77;;;2.40;;
19525;SDS011;9907;42.676;26.348;2023-03-14T04:02:06;2.07;;;1.90;;
19525;SDS011;9907;42.676;26.348;2023-03-14T04:04:32;4.90;;;2.57;;
19525;SDS011;9907;42.676;26.348;2023-03-14T04:06:58;3.80;;;2.27;;
19525;SDS011;9907;42.676;26.348;2023-03-14T04:09:23;3.17;;;2.70;;
19525;SDS011;9907;42.676;26.348;2023-03-14T04:11:49;3.67;;;3.10;;
19525;SDS011;9907;42.676;26.348;2023-03-14T04:14:14;3.97;;;3.67;;
19525;SDS011;9907;42.676;26.348;2023-03-14T04:16:40;4.20;;;3.80;;
19525;SDS011;9907;42.676;26.348;2023-03-14T04:19:05;6.20;;;3.40;;
19525;SDS011;9907;42.676;26.348;2023-03-14T04:21:31;4.70;;;3.77;;
19525;SDS011;9907;42.676;26.348;2023-03-14T04:23:59;3.43;;;3.10;;
19525;SDS011;9907;42.676;26.348;2023-03-14T04:26:25;3.43;;;2.90;;
19525;SDS011;9907;42.676;26.348;2023-03-14T04:28:50;4.77;;;2.80;;
19525;SDS011;9907;42.676;26.348;2023-03-14T04:31:20;4.63;;;2.90;;
19525;SDS011;9907;42.676;26.348;2023-03-14T04:33:46;3.17;;;2.87;;
19525;SDS011;9907;42.676;26.348;2023-03-14T04:36:12;3.57;;;3.23;;
19525;SDS011;9907;42.676;26.348;2023-03-14T04:38:38;3.63;;;3.30;;
19525;SDS011;9907;42.676;26.348;2023-03-14T04:41:03;3.57;;;3.03;;
19525;SDS011;9907;42.676;26.348;2023-03-14T04:43:29;3.60;;;3.30;;
19525;SDS011;9907;42.676;26.348;2023-03-14T04:45:55;3.80;;;3.40;;
19525;SDS011;9907;42.676;26.348;2023-03-14T04:48:22;3.33;;;3.03;;
19525;SDS011;9907;42.676;26.348;2023-03-14T04:50:49;4.90;;;3.47;;
19525;SDS011;9907;42.676;26.348;2023-03-14T04:53:15;7.40;;;3.47;;
19525;SDS011;9907;42.676;26.348;2023-03-14T04:55:41;5.97;;;3.80;;
19525;SDS011;9907;42.676;26.348;2023-03-14T04:58:06;4.47;;;3.83;;
19525;SDS011;9907;42.676;26.348;2023-03-14T05:00:32;6.07;;;3.77;;
19525;SDS011;9907;42.676;26.348;2023-03-14T05:02:58;6.27;;;3.97;;
19525;SDS011;9907;42.676;26.348;2023-03-14T05:05:23;4.60;;;3.30;;
19525;SDS011;9907;42.676;26.348;2023-03-14T05:07:49;5.50;;;3.57;;
19525;SDS011;9907;42.676;26.348;2023-03-14T05:10:15;4.33;;;3.67;;
19525;SDS011;9907;42.676;26.348;2023-03-14T05:12:41;5.87;;;4.00;;
19525;SDS011;9907;42.676;26.348;2023-03-14T05:15:06;5.73;;;3.60;;
19525;SDS011;9907;42.676;26.348;2023-03-14T05:17:32;3.87;;;3.47;;
19525;SDS011;9907;42.676;26.348;2023-03-14T05:19:58;6.43;;;3.90;;
19525;SDS011;9907;42.676;26.348;2023-03-14T05:22:24;5.20;;;3.90;;
19525;SDS011;9907;42.676;26.348;2023-03-14T05:24:49;6.17;;;4.23;;
19525;SDS011;9907;42.676;26.348;2023-03-14T05:27:15;7.50;;;5.17;;
19525;SDS011;9907;42.676;26.348;2023-03-14T05:29:40;7.27;;;5.10;;
19525;SDS011;9907;42.676;26.348;2023-03-14T05:32:06;5.20;;;4.70;;
19525;SDS011;9907;42.676;26.348;2023-03-14T05:34:31;6.63;;;4.60;;
19525;SDS011;9907;42.676;26.348;2023-03-14T05:36:57;7.07;;;4.50;;
19525;SDS011;9907;42.676;26.348;2023-03-14T05:39:22;6.23;;;4.73;;
19525;SDS011;9907;42.676;26.348;2023-03-14T05:41:48;18.30;;;5.10;;
19525;SDS011;9907;42.676;26.348;2023-03-14T05:44:14;9.37;;;5.40;;
19525;SDS011;9907;42.676;26.348;2023-03-14T05:46:39;10.93;;;5.50;;
19525;SDS011;9907;42.676;26.348;2023-03-14T05:49:04;10.23;;;5.30;;
19525;SDS011;9907;42.676;26.348;2023-03-14T05:51:30;9.57;;;5.30;;
19525;SDS011;9907;42.676;26.348;2023-03-14T05:53:55;10.20;;;5.50;;
19525;SDS011;9907;42.676;26.348;2023-03-14T05:56:21;4.77;;;4.27;;
19525;SDS011;9907;42.676;26.348;2023-03-14T05:58:46;4.90;;;3.77;;
19525;SDS011;9907;42.676;26.348;2023-03-14T06:01:12;5.63;;;4.00;;
19525;SDS011;9907;42.676;26.348;2023-03-14T06:03:37;4.53;;;3.20;;
19525;SDS011;9907;42.676;26.348;2023-03-14T06:06:02;3.73;;;2.70;;
19525;SDS011;9907;42.676;26.348;2023-03-14T06:08:28;4.63;;;3.17;;
19525;SDS011;9907;42.676;26.348;2023-03-14T06:10:53;5.30;;;2.80;;
19525;SDS011;9907;42.676;26.348;2023-03-14T06:13:19;4.97;;;4.07;;
19525;SDS011;9907;42.676;26.348;2023-03-14T06:15:44;4.90;;;3.60;;
19525;SDS011;9907;42.676;26.348;2023-03-14T06:18:10;5.37;;;3.83;;
19525;SDS011;9907;42.676;26.348;2023-03-14T06:20:36;5.90;;;3.40;;
19525;SDS011;9907;42.676;26.348;2023-03-14T06:23:04;8.63;;;3.80;;
19525;SDS011;9907;42.676;26.348;2023-03-14T06:25:30;9.53;;;3.90;;
19525;SDS011;9907;42.676;26.348;2023-03-14T06:27:56;4.43;;;3.73;;
19525;SDS011;9907;42.676;26.348;2023-03-14T06:30:22;6.70;;;3.30;;
19525;SDS011;9907;42.676;26.348;2023-03-14T06:32:47;9.43;;;6.20;;
19525;SDS011;9907;42.676;26.348;2023-03-14T06:35:15;12.63;;;7.37;;
19525;SDS011;9907;42.676;26.348;2023-03-14T06:37:41;7.63;;;4.87;;
19525;SDS011;9907;42.676;26.348;2023-03-14T06:40:07;5.27;;;3.70;;
19525;SDS011;9907;42.676;26.348;2023-03-14T06:42:33;5.10;;;3.37;;
19525;SDS011;9907;42.676;26.348;2023-03-14T06:44:59;5.57;;;4.20;;
19525;SDS011;9907;42.676;26.348;2023-03-14T06:47:24;5.43;;;4.13;;
19525;SDS011;9907;42.676;26.348;2023-03-14T06:49:50;6.90;;;4.33;;
19525;SDS011;9907;42.676;26.348;2023-03-14T06:52:15;9.20;;;5.83;;
19525;SDS011;9907;42.676;26.348;2023-03-14T06:54:41;7.90;;;5.37;;
19525;SDS011;9907;42.676;26.348;2023-03-14T06:57:06;10.87;;;6.07;;
19525;SDS011;9907;42.676;26.348;2023-03-14T06:59:32;7.40;;;5.10;;
19525;SDS011;9907;42.676;26.348;2023-03-14T07:01:57;9.97;;;4.77;;
19525;SDS011;9907;42.676;26.348;2023-03-14T07:04:23;5.83;;;4.90;;
19525;SDS011;9907;42.676;26.348;2023-03-14T07:06:48;8.53;;;6.90;;
19525;SDS011;9907;42.676;26.348;2023-03-14T07:09:14;7.20;;;4.90;;
19525;SDS011;9907;42.676;26.348;2023-03-14T07:11:42;6.73;;;4.27;;
19525;SDS011;9907;42.676;26.348;2023-03-14T07:14:07;12.43;;;9.80;;
19525;SDS011;9907;42.676;26.348;2023-03-14T07:16:33;7.40;;;5.53;;
19525;SDS011;9907;42.676;26.348;2023-03-14T07:18:59;6.97;;;4.33;;
19525;SDS011;9907;42.676;26.348;2023-03-14T07:21:25;6.90;;;5.10;;
19525;SDS011;9907;42.676;26.348;2023-03-14T07:23:51;6.47;;;4.40;;
19525;SDS011;9907;42.676;26.348;2023-03-14T07:26:16;6.23;;;4.67;;
19525;SDS011;9907;42.676;26.348;2023-03-14T07:28:42;7.80;;;4.20;;
19525;SDS011;9907;42.676;26.348;2023-03-14T07:31:07;6.20;;;4.23;;
19525;SDS011;9907;42.676;26.348;2023-03-14T07:33:33;7.63;;;4.37;;
19525;SDS011;9907;42.676;26.348;2023-03-14T07:35:59;8.73;;;4.60;;
19525;SDS011;9907;42.676;26.348;2023-03-14T07:38:24;10.00;;;4.73;;
19525;SDS011;9907;42.676;26.348;2023-03-14T07:40:50;11.70;;;4.43;;
19525;SDS011;9907;42.676;26.348;2023-03-14T07:43:15;9.33;;;4.10;;
19525;SDS011;9907;42.676;26.348;2023-03-14T07:45:44;26.23;;;7.13;;
19525;SDS011;9907;42.676;26.348;2023-03-14T07:48:11;11.83;;;5.23;;
19525;SDS011;9907;42.676;26.348;2023-03-14T07:50:36;6.50;;;4.37;;
19525;SDS011;9907;42.676;26.348;2023-03-14T07:53:02;13.60;;;5.30;;
19525;SDS011;9907;42.676;26.348;2023-03-14T07:55:27;10.50;;;5.20;;
19525;SDS011;9907;42.676;26.348;2023-03-14T07:57:53;8.77;;;4.90;;
19525;SDS011;9907;42.676;26.348;2023-03-14T08:00:18;8.23;;;4.27;;
19525;SDS011;9907;42.676;26.348;2023-03-14T08:02:44;11.73;;;4.70;;
19525;SDS011;9907;42.676;26.348;2023-03-14T08:05:12;12.07;;;5.30;;
19525;SDS011;9907;42.676;26.348;2023-03-14T08:07:38;12.50;;;5.20;;
19525;SDS011;9907;42.676;26.348;2023-03-14T08:10:04;7.87;;;5.30;;
19525;SDS011;9907;42.676;26.348;2023-03-14T08:12:30;23.57;;;6.93;;
19525;SDS011;9907;42.676;26.348;2023-03-14T08:14:55;7.23;;;4.87;;
19525;SDS011;9907;42.676;26.348;2023-03-14T08:17:21;8.33;;;4.70;;
19525;SDS011;9907;42.676;26.348;2023-03-14T08:19:46;7.60;;;4.87;;
19525;SDS011;9907;42.676;26.348;2023-03-14T08:22:12;9.57;;;4.60;;
19525;SDS011;9907;42.676;26.348;2023-03-14T08:24:37;13.37;;;5.50;;
19525;SDS011;9907;42.676;26.348;2023-03-14T08:27:03;12.80;;;4.60;;
19525;SDS011;9907;42.676;26.348;2023-03-14T08:29:28;9.03;;;4.33;;
19525;SDS011;9907;42.676;26.348;2023-03-14T08:31:54;8.77;;;4.53;;
19525;SDS011;9907;42.676;26.348;2023-03-14T08:34:20;7.90;;;5.40;;
19525;SDS011;9907;42.676;26.348;2023-03-14T08:36:45;8.73;;;3.60;;
19525;SDS011;9907;42.676;26.348;2023-03-14T08:39:13;10.37;;;3.90;;
19525;SDS011;9907;42.676;26.348;2023-03-14T08:41:39;8.37;;;3.70;;
19525;SDS011;9907;42.676;26.348;2023-03-14T08:44:09;7.17;;;3.77;;
19525;SDS011;9907;42.676;26.348;2023-03-14T08:46:38;9.03;;;3.90;;
19525;SDS011;9907;42.676;26.348;2023-03-14T08:49:04;11.50;;;4.47;;
19525;SDS011;9907;42.676;26.348;2023-03-14T08:51:29;20.97;;;6.10;;
19525;SDS011;9907;42.676;26.348;2023-03-14T08:53:55;9.00;;;4.83;;
19525;SDS011;9907;42.676;26.348;2023-03-14T08:56:20;8.80;;;4.10;;
19525;SDS011;9907;42.676;26.348;2023-03-14T08:58:46;10.63;;;5.27;;
19525;SDS011;9907;42.676;26.348;2023-03-14T09:01:11;8.50;;;5.20;;
19525;SDS011;9907;42.676;26.348;2023-03-14T09:03:37;13.60;;;5.50;;
19525;SDS011;9907;42.676;26.348;2023-03-14T09:06:03;13.83;;;4.77;;
19525;SDS011;9907;42.676;26.348;2023-03-14T09:08:30;8.47;;;4.73;;
19525;SDS011;9907;42.676;26.348;2023-03-14T09:10:56;7.97;;;4.17;;
19525;SDS011;9907;42.676;26.348;2023-03-14T09:13:21;8.53;;;3.73;;
19525;SDS011;9907;42.676;26.348;2023-03-14T09:15:53;8.37;;;4.17;;
19525;SDS011;9907;42.676;26.348;2023-03-14T09:18:21;6.47;;;3.87;;
19525;SDS011;9907;42.676;26.348;2023-03-14T09:20:47;5.67;;;3.33;;
19525;SDS011;9907;42.676;26.348;2023-03-14T09:23:13;10.33;;;3.60;;
19525;SDS011;9907;42.676;26.348;2023-03-14T09:25:39;5.30;;;3.53;;
19525;SDS011;9907;42.676;26.348;2023-03-14T09:28:05;7.27;;;3.30;;
19525;SDS011;9907;42.676;26.348;2023-03-14T09:30:30;4.77;;;2.67;;
19525;SDS011;9907;42.676;26.348;2023-03-14T09:32:56;6.57;;;3.40;;
19525;SDS011;9907;42.676;26.348;2023-03-14T09:35:22;8.10;;;3.63;;
19525;SDS011;9907;42.676;26.348;2023-03-14T09:37:48;8.07;;;3.97;;
19525;SDS011;9907;42.676;26.348;2023-03-14T09:40:17;10.43;;;4.47;;
19525;SDS011;9907;42.676;26.348;2023-03-14T09:42:47;8.00;;;4.33;;
19525;SDS011;9907;42.676;26.348;2023-03-14T09:45:27;5.27;;;3.80;;
19525;SDS011;9907;42.676;26.348;2023-03-14T09:47:56;4.73;;;3.00;;
19525;SDS011;9907;42.676;26.348;2023-03-14T09:50:23;3.97;;;3.07;;
19525;SDS011;9907;42.676;26.348;2023-03-14T09:52:51;3.70;;;2.70;;
19525;SDS011;9907;42.676;26.348;2023-03-14T09:55:24;4.67;;;2.90;;
19525;SDS011;9907;42.676;26.348;2023-03-14T09:57:50;5.13;;;2.90;;
19525;SDS011;9907;42.676;26.348;2023-03-14T10:00:29;6.87;;;3.43;;
19525;SDS011;9907;42.676;26.348;2023-03-14T10:05:32;10.03;;;4.43;;
19525;SDS011;9907;42.676;26.348;2023-03-14T10:07:57;6.73;;;3.57;;
19525;SDS011;9907;42.676;26.348;2023-03-14T10:10:24;9.10;;;4.27;;
19525;SDS011;9907;42.676;26.348;2023-03-14T10:15:53;7.73;;;3.70;;
19525;SDS011;9907;42.676;26.348;2023-03-14T10:18:21;5.03;;;3.03;;
19525;SDS011;9907;42.676;26.348;2023-03-14T10:20:49;3.53;;;2.90;;
19525;SDS011;9907;42.676;26.348;2023-03-14T10:23:27;3.97;;;3.10;;
19525;SDS011;9907;42.676;26.348;2023-03-14T10:28:52;6.57;;;3.40;;
19525;SDS011;9907;42.676;26.348;2023-03-14T10:31:17;3.67;;;2.93;;
19525;SDS011;9907;42.676;26.348;2023-03-14T10:33:59;8.90;;;4.03;;
19525;SDS011;9907;42.676;26.348;2023-03-14T10:36:28;24.23;;;6.73;;
19525;SDS011;9907;42.676;26.348;2023-03-14T10:39:15;7.10;;;3.87;;
19525;SDS011;9907;42.676;26.348;2023-03-14T10:41:48;4.60;;;3.50;;
19525;SDS011;9907;42.676;26.348;2023-03-14T10:44:18;6.17;;;3.40;;
19525;SDS011;9907;42.676;26.348;2023-03-14T10:47:01;5.17;;;4.03;;
19525;SDS011;9907;42.676;26.348;2023-03-14T10:49:30;4.60;;;3.60;;
19525;SDS011;9907;42.676;26.348;2023-03-14T10:52:13;4.53;;;3.07;;
19525;SDS011;9907;42.676;26.348;2023-03-14T10:55:00;4.80;;;3.00;;
19525;SDS011;9907;42.676;26.348;2023-03-14T10:57:27;3.83;;;2.90;;
19525;SDS011;9907;42.676;26.348;2023-03-14T10:59:53;8.43;;;3.40;;
19525;SDS011;9907;42.676;26.348;2023-03-14T11:05:31;5.60;;;3.30;;
19525;SDS011;9907;42.676;26.348;2023-03-14T11:16:40;3.70;;;2.87;;
19525;SDS011;9907;42.676;26.348;2023-03-14T11:19:27;3.17;;;2.70;;
19525;SDS011;9907;42.676;26.348;2023-03-14T11:27:18;3.53;;;2.83;;
19525;SDS011;9907;42.676;26.348;2023-03-14T11:29:55;5.17;;;3.30;;
19525;SDS011;9907;42.676;26.348;2023-03-14T11:34:52;3.47;;;2.80;;
19525;SDS011;9907;42.676;26.348;2023-03-14T11:37:30;12.33;;;8.40;;
19525;SDS011;9907;42.676;26.348;2023-03-14T11:42:40;6.33;;;4.53;;
19525;SDS011;9907;42.676;26.348;2023-03-14T11:45:16;4.20;;;3.27;;
19525;SDS011;9907;42.676;26.348;2023-03-14T11:47:46;10.80;;;5.40;;
19525;SDS011;9907;42.676;26.348;2023-03-14T11:50:37;6.07;;;3.17;;
19525;SDS011;9907;42.676;26.348;2023-03-14T11:53:06;5.57;;;4.50;;
19525;SDS011;9907;42.676;26.348;2023-03-14T11:55:39;5.07;;;3.13;;
19525;SDS011;9907;42.676;26.348;2023-03-14T11:58:26;6.53;;;2.77;;
19525;SDS011;9907;42.676;26.348;2023-03-14T12:00:56;6.43;;;2.80;;
19525;SDS011;9907;42.676;26.348;2023-03-14T12:03:32;3.07;;;2.40;;
19525;SDS011;9907;42.676;26.348;2023-03-14T12:06:27;12.80;;;3.63;;
19525;SDS011;9907;42.676;26.348;2023-03-14T12:08:58;2.57;;;2.23;;
19525;SDS011;9907;42.676;26.348;2023-03-14T12:19:43;2.33;;;2.13;;
19525;SDS011;9907;42.676;26.348;2023-03-14T12:24:51;2.10;;;1.90;;
19525;SDS011;9907;42.676;26.348;2023-03-14T12:30:17;4.97;;;2.50;;
19525;SDS011;9907;42.676;26.348;2023-03-14T12:36:20;2.33;;;2.10;;
19525;SDS011;9907;42.676;26.348;2023-03-14T12:41:16;5.33;;;1.80;;
19525;SDS011;9907;42.676;26.348;2023-03-14T12:46:58;1.93;;;1.73;;
19525;SDS011;9907;42.676;26.348;2023-03-14T12:49:31;3.17;;;1.97;;
19525;SDS011;9907;42.676;26.348;2023-03-14T12:52:10;2.47;;;2.00;;
19525;SDS011;9907;42.676;26.348;2023-03-14T12:54:43;2.87;;;2.20;;
19525;SDS011;9907;42.676;26.348;2023-03-14T13:00:00;3.87;;;2.10;;
19525;SDS011;9907;42.676;26.348;2023-03-14T13:02:38;4.20;;;2.37;;
19525;SDS011;9907;42.676;26.348;2023-03-14T13:05:09;5.00;;;2.53;;
19525;SDS011;9907;42.676;26.348;2023-03-14T13:10:22;5.70;;;2.47;;
19525;SDS011;9907;42.676;26.348;2023-03-14T13:12:54;5.33;;;2.27;;
19525;SDS011;9907;42.676;26.348;2023-03-14T13:15:29;2.77;;;2.07;;
19525;SDS011;9907;42.676;26.348;2023-03-14T13:18:11;2.63;;;2.20;;
19525;SDS011;9907;42.676;26.348;2023-03-14T13:23:53;4.80;;;3.80;;
19525;SDS011;9907;42.676;26.348;2023-03-14T13:26:32;3.50;;;2.20;;
19525;SDS011;9907;42.676;26.348;2023-03-14T13:29:00;2.20;;;1.60;;
19525;SDS011;9907;42.676;26.348;2023-03-14T13:31:33;8.07;;;2.70;;
19525;SDS011;9907;42.676;26.348;2023-03-14T13:34:00;1.60;;;1.33;;
19525;SDS011;9907;42.676;26.348;2023-03-14T13:36:27;2.90;;;1.50;;
19525;SDS011;9907;42.676;26.348;2023-03-14T13:38:56;6.03;;;2.50;;
19525;SDS011;9907;42.676;26.348;2023-03-14T13:41:24;3.10;;;2.00;;
19525;SDS011;9907;42.676;26.348;2023-03-14T13:43:51;3.37;;;2.57;;
19525;SDS011;9907;42.676;26.348;2023-03-14T13:46:19;2.47;;;2.07;;
19525;SDS011;9907;42.676;26.348;2023-03-14T13:48:48;3.10;;;2.60;;
19525;SDS011;9907;42.676;26.348;2023-03-14T13:51:19;3.43;;;1.70;;
19525;SDS011;9907;42.676;26.348;2023-03-14T13:53:48;1.90;;;1.70;;
19525;SDS011;9907;42.676;26.348;2023-03-14T13:56:20;1.60;;;1.50;;
19525;SDS011;9907;42.676;26.348;2023-03-14T13:58:46;2.37;;;1.80;;
19525;SDS011;9907;42.676;26.348;2023-03-14T14:03:50;1.63;;;1.30;;
19525;SDS011;9907;42.676;26.348;2023-03-14T14:06:37;3.90;;;1.70;;
19525;SDS011;9907;42.676;26.348;2023-03-14T14:09:14;2.00;;;1.47;;
19525;SDS011;9907;42.676;26.348;2023-03-14T14:16:53;2.60;;;1.60;;
19525;SDS011;9907;42.676;26.348;2023-03-14T14:19:20;1.87;;;1.67;;
19525;SDS011;9907;42.676;26.348;2023-03-14T14:21:49;7.20;;;4.60;;
19525;SDS011;9907;42.676;26.348;2023-03-14T14:24:15;19.60;;;12.50;;
19525;SDS011;9907;42.676;26.348;2023-03-14T14:26:46;8.57;;;5.43;;
19525;SDS011;9907;42.676;26.348;2023-03-14T14:34:44;1.40;;;1.30;;
19525;SDS011;9907;42.676;26.348;2023-03-14T14:42:40;1.50;;;1.40;;
19525;SDS011;9907;42.676;26.348;2023-03-14T14:45:07;3.13;;;2.10;;
19525;SDS011;9907;42.676;26.348;2023-03-14T14:47:50;3.50;;;2.07;;
19525;SDS011;9907;42.676;26.348;2023-03-14T14:51:06;2.50;;;2.03;;
19525;SDS011;9907;42.676;26.348;2023-03-14T14:53:35;3.73;;;1.90;;
19525;SDS011;9907;42.676;26.348;2023-03-14T14:56:04;1.90;;;1.70;;
19525;SDS011;9907;42.676;26.348;2023-03-14T14:58:51;1.90;;;1.63;;
19525;SDS011;9907;42.676;26.348;2023-03-14T15:01:24;1.37;;;1.27;;
19525;SDS011;9907;42.676;26.348;2023-03-14T15:03:55;1.80;;;1.37;;
19525;SDS011;9907;42.676;26.348;2023-03-14T15:06:21;2.77;;;1.57;;
19525;SDS011;9907;42.676;26.348;2023-03-14T15:08:49;1.47;;;1.30;;
19525;SDS011;9907;42.676;26.348;2023-03-14T15:11:18;1.43;;;1.20;;
19525;SDS011;9907;42.676;26.348;2023-03-14T15:13:47;1.23;;;0.97;;
19525;SDS011;9907;42.676;26.348;2023-03-14T15:16:14;1.33;;;1.13;;
19525;SDS011;9907;42.676;26.348;2023-03-14T15:18:42;4.13;;;1.60;;
19525;SDS011;9907;42.676;26.348;2023-03-14T15:21:10;3.57;;;1.20;;
19525;SDS011;9907;42.676;26.348;2023-03-14T15:23:36;3.23;;;1.23;;
19525;SDS011;9907;42.676;26.348;2023-03-14T15:26:10;5.63;;;1.70;;
19525;SDS011;9907;42.676;26.348;2023-03-14T15:28:48;3.27;;;1.27;;
19525;SDS011;9907;42.676;26.348;2023-03-14T15:31:14;6.20;;;1.40;;
19525;SDS011;9907;42.676;26.348;2023-03-14T15:33:44;2.97;;;1.23;;
19525;SDS011;9907;42.676;26.348;2023-03-14T15:36:19;1.00;;;1.00;;
19525;SDS011;9907;42.676;26.348;2023-03-14T15:38:45;2.17;;;1.00;;
19525;SDS011;9907;42.676;26.348;2023-03-14T15:41:11;3.83;;;1.20;;
19525;SDS011;9907;42.676;26.348;2023-03-14T15:43:36;6.23;;;1.10;;
19525;SDS011;9907;42.676;26.348;2023-03-14T15:46:05;2.40;;;1.23;;
19525;SDS011;9907;42.676;26.348;2023-03-14T15:48:33;1.40;;;1.30;;
19525;SDS011;9907;42.676;26.348;2023-03-14T15:50:58;2.77;;;1.70;;
19525;SDS011;9907;42.676;26.348;2023-03-14T15:53:24;2.97;;;1.77;;
19525;SDS011;9907;42.676;26.348;2023-03-14T15:55:49;3.90;;;3.00;;
19525;SDS011;9907;42.676;26.348;2023-03-14T15:58:17;3.30;;;2.53;;
19525;SDS011;9907;42.676;26.348;2023-03-14T16:00:49;3.87;;;1.60;;
19525;SDS011;9907;42.676;26.348;2023-03-14T16:03:15;3.53;;;1.70;;
19525;SDS011;9907;42.676;26.348;2023-03-14T16:05:41;2.57;;;2.10;;
19525;SDS011;9907;42.676;26.348;2023-03-14T16:08:06;3.73;;;2.97;;
19525;SDS011;9907;42.676;26.348;2023-03-14T16:10:32;2.30;;;1.80;;
19525;SDS011;9907;42.676;26.348;2023-03-14T16:12:58;6.30;;;2.10;;
19525;SDS011;9907;42.676;26.348;2023-03-14T16:15:24;17.13;;;4.60;;
19525;SDS011;9907;42.676;26.348;2023-03-14T16:17:53;9.13;;;3.60;;